Time;durP1;ratioP1;P1;durP2;ratioP2;P2;SDS_P1;SDS_P2;PMS_P1;PMS_P2;Temp;Humidity;BMP_temperature;BMP_pressure;BME280_temperature;BME280_humidity;BME280_pressure;Samples;Min_cycle;Max_cycle;Signal;HPM_P1;HPM_P2
2024/01/11 00:01:30;;;;;;;51.15;20.65;;;;;;;;;;5045030;28;20025;-77
2024/01/11 00:03:56;;;;;;;51.38;21.17;;;;;;;;;;5058172;28;20049;-76
2024/01/11 00:06:22;;;;;;;49.67;20.50;;;;;;;;;;5052328;28;20021;-75
2024/01/11 00:08:48;;;;;;;44.58;20.55;;;;;;;;;;5057976;28;20014;-75
2024/01/11 00:11:14;;;;;;;40.47;19.63;;;;;;;;;;5058505;28;20025;-76
2024/01/11 00:13:40;;;;;;;45.72;18.73;;;;;;;;;;5057323;28;20079;-77
2024/01/11 00:16:06;;;;;;;44.10;20.83;;;;;;;;;;5058205;28;20874;-77
2024/01/11 00:18:32;;;;;;;44.42;19.83;;;;;;;;;;5066677;28;20017;-77
2024/01/11 00:20:58;;;;;;;53.80;20.70;;;;;;;;;;5050710;28;20033;-76
2024/01/11 00:23:24;;;;;;;43.83;18.77;;;;;;;;;;5059698;28;20045;-77
2024/01/11 00:26:00;;;;;;;;;;;;;;;;;;;;;
2024/01/11 00:28:31;;;;;;;43.25;20.15;;;;;;;;;;5044312;28;20057;-77
2024/01/11 00:30:57;;;;;;;49.00;21.23;;;;;;;;;;5052123;28;20060;-75
2024/01/11 00:33:25;;;;;;;52.97;19.88;;;;;;;;;;5044384;28;20894;-75
2024/01/11 00:35:52;;;;;;;47.60;20.38;;;;;;;;;;5043480;28;20060;-74
2024/01/11 00:38:18;;;;;;;53.03;20.20;;;;;;;;;;5044217;28;20022;-75
2024/01/11 00:40:46;;;;;;;46.63;18.58;;;;;;;;;;5042935;28;20049;-75
2024/01/11 00:43:12;;;;;;;47.35;19.00;;;;;;;;;;5059256;28;20050;-78
2024/01/11 00:45:38;;;;;;;49.17;19.67;;;;;;;;;;5040077;28;20105;-76
2024/01/11 00:48:12;;;;;;;41.67;19.63;;;;;;;;;;5046290;28;20045;-76
2024/01/11 00:50:38;;;;;;;43.80;17.45;;;;;;;;;;5047174;28;20037;-78
2024/01/11 00:53:04;;;;;;;43.83;18.83;;;;;;;;;;5045884;28;20097;-76
2024/01/11 00:55:31;;;;;;;43.72;19.83;;;;;;;;;;5047816;28;20041;-75
2024/01/11 00:57:57;;;;;;;41.28;20.25;;;;;;;;;;5044650;28;20044;-74
2024/01/11 01:00:25;;;;;;;45.65;18.70;;;;;;;;;;5058644;28;20033;-78
2024/01/11 01:02:51;;;;;;;43.85;17.75;;;;;;;;;;5042878;28;20038;-76
2024/01/11 01:05:17;;;;;;;42.28;19.17;;;;;;;;;;5076205;28;20140;-75
2024/01/11 01:07:43;;;;;;;40.33;19.15;;;;;;;;;;5043873;28;20025;-76
2024/01/11 01:10:12;;;;;;;44.28;19.85;;;;;;;;;;5041885;28;20041;-75
2024/01/11 01:12:38;;;;;;;44.75;19.05;;;;;;;;;;5043188;28;20021;-75
2024/01/11 01:15:07;;;;;;;46.53;19.05;;;;;;;;;;5044506;28;20204;-77
2024/01/11 01:17:38;;;;;;;45.28;18.02;;;;;;;;;;5078713;28;20041;-76
2024/01/11 01:20:12;;;;;;;43.42;18.95;;;;;;;;;;5059241;28;20043;-75
2024/01/11 01:22:40;;;;;;;38.45;17.10;;;;;;;;;;5059067;28;20068;-75
2024/01/11 01:25:10;;;;;;;47.25;20.05;;;;;;;;;;5045101;28;20046;-77
2024/01/11 01:27:36;;;;;;;44.47;19.42;;;;;;;;;;5057936;28;20029;-74
2024/01/11 01:30:03;;;;;;;39.58;17.60;;;;;;;;;;5048288;28;20030;-75
2024/01/11 01:32:31;;;;;;;49.22;20.60;;;;;;;;;;5057632;28;20029;-75
2024/01/11 01:34:57;;;;;;;41.88;18.20;;;;;;;;;;5044170;28;20048;-77
2024/01/11 01:37:23;;;;;;;43.88;18.23;;;;;;;;;;5043838;28;20127;-75
2024/01/11 01:39:49;;;;;;;41.45;19.45;;;;;;;;;;5043325;28;20024;-76
2024/01/11 01:42:18;;;;;;;49.90;21.30;;;;;;;;;;5059931;28;20068;-76
2024/01/11 01:44:44;;;;;;;53.70;22.40;;;;;;;;;;5044909;28;20022;-76
2024/01/11 01:47:11;;;;;;;42.70;19.60;;;;;;;;;;5043948;28;20061;-75
2024/01/11 01:49:40;;;;;;;45.42;18.88;;;;;;;;;;5044446;28;20072;-77
2024/01/11 01:52:08;;;;;;;41.03;19.50;;;;;;;;;;5043472;28;20044;-77
2024/01/11 01:54:36;;;;;;;42.08;18.58;;;;;;;;;;5043975;28;20065;-75
2024/01/11 01:57:03;;;;;;;51.03;21.25;;;;;;;;;;5043420;28;20048;-77
2024/01/11 01:59:39;;;;;;;49.15;21.83;;;;;;;;;;5058918;28;20117;-75
2024/01/11 02:02:06;;;;;;;48.88;21.35;;;;;;;;;;5043668;28;20136;-77
2024/01/11 02:04:35;;;;;;;50.92;21.10;;;;;;;;;;5047657;28;20034;-76
2024/01/11 02:07:02;;;;;;;46.05;20.90;;;;;;;;;;5075615;28;20017;-75
2024/01/11 02:09:31;;;;;;;47.20;22.15;;;;;;;;;;5074429;28;20128;-77
2024/01/11 02:12:00;;;;;;;47.22;20.80;;;;;;;;;;5044252;28;20026;-77
2024/01/11 02:14:27;;;;;;;51.30;20.80;;;;;;;;;;5042588;28;20033;-75
2024/01/11 02:16:53;;;;;;;40.25;18.92;;;;;;;;;;5047237;28;20044;-75
2024/01/11 02:19:20;;;;;;;48.38;20.95;;;;;;;;;;5043626;28;20129;-75
2024/01/11 02:21:47;;;;;;;48.67;22.13;;;;;;;;;;5056102;28;20022;-76
2024/01/11 02:24:16;;;;;;;52.60;21.65;;;;;;;;;;5057548;28;20263;-76
2024/01/11 02:27:01;;;;;;;51.17;19.80;;;;;;;;;;5060620;28;20038;-77
2024/01/11 02:29:27;;;;;;;50.17;21.45;;;;;;;;;;5059964;28;20053;-78
2024/01/11 02:31:54;;;;;;;46.00;20.08;;;;;;;;;;5061448;28;20025;-77
2024/01/11 02:34:21;;;;;;;43.40;20.10;;;;;;;;;;5043617;28;20081;-76
2024/01/11 02:36:49;;;;;;;45.42;19.10;;;;;;;;;;5051207;28;20032;-76
2024/01/11 02:39:19;;;;;;;45.92;21.08;;;;;;;;;;5044875;28;20030;-79
2024/01/11 02:41:48;;;;;;;44.58;20.17;;;;;;;;;;5047394;28;20656;-75
2024/01/11 02:44:14;;;;;;;46.22;20.33;;;;;;;;;;5048056;28;20037;-76
2024/01/11 02:46:40;;;;;;;52.22;23.33;;;;;;;;;;5061944;28;20093;-77
2024/01/11 02:49:06;;;;;;;51.80;21.48;;;;;;;;;;5049243;28;20030;-75
2024/01/11 02:51:33;;;;;;;53.67;21.75;;;;;;;;;;5078024;28;20552;-78
2024/01/11 02:54:06;;;;;;;51.15;23.45;;;;;;;;;;5047673;28;20036;-76
2024/01/11 02:56:32;;;;;;;44.75;21.23;;;;;;;;;;5061750;28;20033;-76
2024/01/11 02:58:59;;;;;;;52.75;22.90;;;;;;;;;;5060784;28;20055;-77
2024/01/11 03:01:25;;;;;;;45.15;20.60;;;;;;;;;;5060479;28;21088;-77
2024/01/11 03:03:51;;;;;;;53.95;22.08;;;;;;;;;;5061803;28;20112;-76
2024/01/11 03:06:21;;;;;;;51.42;21.33;;;;;;;;;;5043486;28;20030;-78
2024/01/11 03:08:48;;;;;;;51.88;22.88;;;;;;;;;;5060973;28;20299;-76
2024/01/11 03:11:14;;;;;;;49.47;22.15;;;;;;;;;;5046510;28;20034;-75
2024/01/11 03:13:41;;;;;;;46.55;21.40;;;;;;;;;;5078487;28;20049;-76
2024/01/11 03:16:07;;;;;;;76.95;25.00;;;;;;;;;;5047926;28;20029;-75
2024/01/11 03:18:51;;;;;;;58.70;24.48;;;;;;;;;;5043919;28;20091;-75
2024/01/11 03:21:17;;;;;;;55.38;24.08;;;;;;;;;;5049744;28;20048;-75
2024/01/11 03:23:43;;;;;;;45.47;20.70;;;;;;;;;;5059996;28;20041;-77
2024/01/11 03:26:13;;;;;;;50.47;22.40;;;;;;;;;;5060187;28;20095;-76
2024/01/11 03:28:39;;;;;;;56.60;23.48;;;;;;;;;;5062438;28;20025;-78
2024/01/11 03:31:05;;;;;;;56.03;22.25;;;;;;;;;;5046677;28;20049;-75
2024/01/11 03:33:33;;;;;;;50.00;23.23;;;;;;;;;;5046243;28;20032;-77
2024/01/11 03:35:59;;;;;;;55.00;24.45;;;;;;;;;;5046290;28;20033;-75
2024/01/11 03:38:25;;;;;;;48.30;20.73;;;;;;;;;;5045145;28;20036;-77
2024/01/11 03:40:52;;;;;;;53.38;21.90;;;;;;;;;;5047088;28;20022;-75
2024/01/11 03:43:24;;;;;;;49.05;20.67;;;;;;;;;;5044107;28;20020;-75
2024/01/11 03:45:50;;;;;;;49.63;21.17;;;;;;;;;;5059488;28;20057;-75
2024/01/11 03:48:18;;;;;;;43.45;19.20;;;;;;;;;;5078664;28;20017;-77
2024/01/11 03:50:44;;;;;;;46.35;20.05;;;;;;;;;;5046470;28;20292;-76
2024/01/11 03:53:10;;;;;;;44.13;20.13;;;;;;;;;;5075302;28;20033;-78
2024/01/11 03:55:37;;;;;;;48.70;20.55;;;;;;;;;;5058695;28;20030;-78
2024/01/11 03:58:05;;;;;;;49.38;21.33;;;;;;;;;;5075868;28;20041;-78
2024/01/11 04:00:33;;;;;;;49.60;21.45;;;;;;;;;;5056987;28;20096;-75
2024/01/11 04:02:59;;;;;;;51.13;21.30;;;;;;;;;;5056576;28;20056;-78
2024/01/11 04:05:25;;;;;;;49.33;20.70;;;;;;;;;;5055608;28;20512;-79
2024/01/11 04:07:51;;;;;;;46.17;21.95;;;;;;;;;;5041806;28;20922;-75
2024/01/11 04:10:20;;;;;;;50.58;22.73;;;;;;;;;;5056695;28;20038;-75
2024/01/11 04:12:46;;;;;;;46.75;20.58;;;;;;;;;;5057659;28;20174;-76
2024/01/11 04:15:20;;;;;;;51.67;20.30;;;;;;;;;;5054053;28;20034;-76
2024/01/11 04:17:54;;;;;;;47.95;20.65;;;;;;;;;;5055982;28;20025;-77
2024/01/11 04:20:20;;;;;;;51.50;21.17;;;;;;;;;;5072312;28;20045;-77
2024/01/11 04:22:46;;;;;;;55.13;23.17;;;;;;;;;;5057144;28;20060;-77
2024/01/11 04:25:12;;;;;;;56.80;21.83;;;;;;;;;;5054105;28;20042;-78
2024/01/11 04:27:38;;;;;;;52.72;22.95;;;;;;;;;;5057701;28;20025;-77
2024/01/11 04:30:05;;;;;;;49.03;21.02;;;;;;;;;;5039397;28;20049;-77
2024/01/11 04:32:35;;;;;;;48.83;20.77;;;;;;;;;;5052814;28;20054;-76
2024/01/11 04:35:02;;;;;;;50.55;21.75;;;;;;;;;;5040087;28;20477;-78
2024/01/11 04:37:28;;;;;;;45.67;18.10;;;;;;;;;;5070304;28;20104;-77
2024/01/11 04:39:54;;;;;;;48.72;19.33;;;;;;;;;;5053263;28;20288;-79
2024/01/11 04:42:20;;;;;;;51.05;21.35;;;;;;;;;;5040747;28;20052;-79
2024/01/11 04:44:46;;;;;;;45.20;19.17;;;;;;;;;;5051491;28;20107;-75
2024/01/11 04:47:15;;;;;;;51.47;20.92;;;;;;;;;;5050347;28;20029;-81
2024/01/11 04:49:41;;;;;;;50.92;20.23;;;;;;;;;;5066987;28;20093;-81
2024/01/11 04:52:09;;;;;;;49.30;20.77;;;;;;;;;;5052395;28;20040;-82
2024/01/11 04:54:37;;;;;;;50.92;20.65;;;;;;;;;;5061997;28;20042;-80
2024/01/11 04:57:06;;;;;;;49.05;20.67;;;;;;;;;;5052924;28;20025;-81
2024/01/11 04:59:32;;;;;;;49.22;20.88;;;;;;;;;;5036807;28;20026;-81
2024/01/11 05:02:00;;;;;;;56.90;21.13;;;;;;;;;;5050960;28;20030;-81
2024/01/11 05:04:26;;;;;;;52.90;20.92;;;;;;;;;;5079463;28;20059;-80
2024/01/11 05:06:55;;;;;;;43.97;20.77;;;;;;;;;;5054829;28;20445;-79
2024/01/11 05:09:21;;;;;;;56.83;20.42;;;;;;;;;;5057445;28;20021;-80
2024/01/11 05:11:47;;;;;;;46.53;18.90;;;;;;;;;;5051163;28;20026;-81
2024/01/11 05:14:13;;;;;;;49.40;19.00;;;;;;;;;;5050227;28;20030;-81
2024/01/11 05:16:41;;;;;;;48.15;20.10;;;;;;;;;;5049667;28;20122;-81
2024/01/11 05:19:07;;;;;;;49.53;21.25;;;;;;;;;;5050708;28;20032;-80
2024/01/11 05:21:36;;;;;;;47.25;21.80;;;;;;;;;;5047242;28;20032;-82
2024/01/11 05:24:02;;;;;;;45.78;19.00;;;;;;;;;;5047878;28;20033;-79
2024/01/11 05:26:28;;;;;;;53.78;22.65;;;;;;;;;;5048367;28;20155;-81
2024/01/11 05:28:54;;;;;;;49.33;19.80;;;;;;;;;;5092019;28;20037;-81
2024/01/11 05:31:23;;;;;;;39.88;18.48;;;;;;;;;;5054258;28;20014;-80
2024/01/11 05:33:49;;;;;;;51.33;20.63;;;;;;;;;;5051004;28;20021;-80
2024/01/11 05:36:15;;;;;;;52.75;19.80;;;;;;;;;;5049290;28;20025;-79
2024/01/11 05:38:41;;;;;;;53.78;20.67;;;;;;;;;;5049122;28;20446;-81
2024/01/11 05:41:14;;;;;;;57.30;21.27;;;;;;;;;;5048835;28;20025;-80
2024/01/11 05:43:45;;;;;;;44.33;19.38;;;;;;;;;;5060023;28;20025;-80
2024/01/11 05:46:11;;;;;;;55.05;20.83;;;;;;;;;;5057020;28;20021;-81
2024/01/11 05:48:37;;;;;;;54.72;20.42;;;;;;;;;;5045164;28;20113;-80
2024/01/11 05:51:11;;;;;;;53.33;21.73;;;;;;;;;;5046312;28;20053;-80
2024/01/11 05:53:37;;;;;;;51.92;20.27;;;;;;;;;;5044898;28;20021;-80
2024/01/11 05:56:10;;;;;;;48.00;19.75;;;;;;;;;;5045061;28;20040;-81
2024/01/11 05:58:39;;;;;;;46.63;19.55;;;;;;;;;;5043770;28;20060;-79
2024/01/11 06:01:05;;;;;;;55.35;20.73;;;;;;;;;;5047055;28;20089;-80
2024/01/11 06:03:33;;;;;;;48.50;20.30;;;;;;;;;;5053921;28;20036;-79
2024/01/11 06:06:00;;;;;;;46.55;20.60;;;;;;;;;;5084614;28;20587;-79
2024/01/11 06:08:26;;;;;;;45.50;20.35;;;;;;;;;;5048227;28;20026;-81
2024/01/11 06:10:52;;;;;;;53.30;20.00;;;;;;;;;;5036468;28;20018;-81
2024/01/11 06:13:18;;;;;;;55.67;20.55;;;;;;;;;;5052399;28;20025;-80
2024/01/11 06:15:44;;;;;;;49.42;19.63;;;;;;;;;;5070496;28;20049;-80
2024/01/11 06:18:10;;;;;;;49.03;20.48;;;;;;;;;;5079546;28;20037;-79
2024/01/11 06:20:37;;;;;;;53.17;19.83;;;;;;;;;;5040154;28;20105;-79
2024/01/11 06:23:03;;;;;;;47.50;19.38;;;;;;;;;;5040136;28;20116;-79
2024/01/11 06:25:29;;;;;;;49.67;20.17;;;;;;;;;;5055563;28;20033;-79
2024/01/11 06:27:55;;;;;;;59.40;21.08;;;;;;;;;;5043049;28;20042;-79
2024/01/11 06:30:21;;;;;;;53.00;19.70;;;;;;;;;;5039877;28;20165;-80
2024/01/11 06:32:47;;;;;;;45.60;20.20;;;;;;;;;;5042487;28;20473;-78
2024/01/11 06:35:13;;;;;;;46.22;19.85;;;;;;;;;;5054508;28;20029;-80
2024/01/11 06:37:42;;;;;;;45.70;20.45;;;;;;;;;;5037811;28;20034;-79
2024/01/11 06:40:08;;;;;;;52.53;20.15;;;;;;;;;;5054478;28;20026;-78
2024/01/11 06:42:34;;;;;;;57.75;21.95;;;;;;;;;;5053232;28;20034;-80
2024/01/11 06:45:01;;;;;;;53.17;21.40;;;;;;;;;;5044276;28;20030;-79
2024/01/11 06:47:27;;;;;;;51.78;22.13;;;;;;;;;;5038835;28;20038;-77
2024/01/11 06:49:53;;;;;;;53.95;23.23;;;;;;;;;;5037282;28;20052;-79
2024/01/11 06:52:20;;;;;;;49.72;21.83;;;;;;;;;;5071898;28;20041;-80
2024/01/11 06:54:46;;;;;;;52.55;20.85;;;;;;;;;;5039063;28;20029;-77
2024/01/11 06:57:12;;;;;;;51.15;21.90;;;;;;;;;;5037978;28;20048;-78
2024/01/11 06:59:40;;;;;;;54.47;22.02;;;;;;;;;;5054478;28;20041;-80
2024/01/11 07:02:06;;;;;;;55.63;23.48;;;;;;;;;;5054946;28;20362;-78
2024/01/11 07:04:35;;;;;;;60.03;24.30;;;;;;;;;;5038804;28;20045;-78
2024/01/11 07:07:04;;;;;;;61.42;23.55;;;;;;;;;;5070785;28;20029;-79
2024/01/11 07:09:32;;;;;;;54.55;23.65;;;;;;;;;;5070034;28;20029;-77
2024/01/11 07:11:58;;;;;;;52.70;23.35;;;;;;;;;;5053094;28;20053;-79
2024/01/11 07:14:27;;;;;;;53.33;23.30;;;;;;;;;;5037875;28;20624;-78
2024/01/11 07:16:53;;;;;;;57.47;24.92;;;;;;;;;;5041072;28;20129;-79
2024/01/11 07:19:19;;;;;;;65.40;24.92;;;;;;;;;;5056115;28;20088;-79
2024/01/11 07:21:45;;;;;;;59.63;24.52;;;;;;;;;;5040015;28;20042;-78
2024/01/11 07:24:11;;;;;;;60.70;25.45;;;;;;;;;;5040219;28;20349;-78
2024/01/11 07:26:39;;;;;;;64.60;27.08;;;;;;;;;;5052681;28;20050;-77
2024/01/11 07:29:05;;;;;;;58.72;22.73;;;;;;;;;;5042321;28;20081;-79
2024/01/11 07:31:32;;;;;;;63.65;25.65;;;;;;;;;;5047437;28;20105;-78
2024/01/11 07:33:58;;;;;;;57.58;24.13;;;;;;;;;;5071529;28;20054;-76
2024/01/11 07:36:24;;;;;;;53.08;23.52;;;;;;;;;;5044319;28;20041;-79
2024/01/11 07:38:53;;;;;;;66.75;25.42;;;;;;;;;;5051570;28;20026;-76
2024/01/11 07:41:19;;;;;;;72.05;26.83;;;;;;;;;;5033784;28;20037;-79
2024/01/11 07:43:45;;;;;;;62.33;27.08;;;;;;;;;;5034840;28;20032;-79
2024/01/11 07:46:11;;;;;;;58.58;23.85;;;;;;;;;;5035044;28;20029;-78
2024/01/11 07:48:37;;;;;;;48.30;21.13;;;;;;;;;;5031850;28;20037;-78
2024/01/11 07:51:03;;;;;;;54.72;24.58;;;;;;;;;;5047499;28;20025;-79
2024/01/11 07:53:29;;;;;;;58.05;24.63;;;;;;;;;;5031534;28;20030;-79
2024/01/11 07:55:55;;;;;;;49.60;22.80;;;;;;;;;;5033749;28;20485;-78
2024/01/11 07:58:21;;;;;;;62.47;24.25;;;;;;;;;;5034941;28;20030;-79
2024/01/11 08:00:49;;;;;;;58.63;23.00;;;;;;;;;;5033406;28;20033;-78
2024/01/11 08:03:15;;;;;;;57.60;23.58;;;;;;;;;;5048887;28;20117;-78
2024/01/11 08:05:43;;;;;;;51.50;22.50;;;;;;;;;;5049357;28;20029;-78
2024/01/11 08:08:09;;;;;;;55.03;22.42;;;;;;;;;;5031413;28;20382;-78
2024/01/11 08:10:35;;;;;;;58.78;23.55;;;;;;;;;;5030460;28;20032;-79
2024/01/11 08:13:01;;;;;;;52.65;22.77;;;;;;;;;;5048477;28;20041;-78
2024/01/11 08:15:27;;;;;;;65.53;25.60;;;;;;;;;;5033748;28;20041;-78
2024/01/11 08:17:53;;;;;;;63.93;25.67;;;;;;;;;;5047337;28;20064;-79
2024/01/11 08:20:21;;;;;;;68.32;25.67;;;;;;;;;;5030143;28;20284;-78
2024/01/11 08:22:47;;;;;;;61.22;25.98;;;;;;;;;;5031706;28;20029;-78
2024/01/11 08:25:14;;;;;;;58.20;26.90;;;;;;;;;;5060333;28;20068;-79
2024/01/11 08:27:40;;;;;;;61.35;24.80;;;;;;;;;;5040674;28;20267;-78
2024/01/11 08:30:08;;;;;;;55.92;25.23;;;;;;;;;;5029431;28;20036;-78
2024/01/11 08:32:38;;;;;;;58.67;24.75;;;;;;;;;;5037430;28;20098;-77
2024/01/11 08:35:06;;;;;;;59.22;26.35;;;;;;;;;;5029762;28;20473;-79
2024/01/11 08:37:32;;;;;;;61.20;27.23;;;;;;;;;;5033812;28;20029;-79
2024/01/11 08:39:58;;;;;;;58.45;23.90;;;;;;;;;;5032715;28;20037;-78
2024/01/11 08:42:24;;;;;;;61.77;24.77;;;;;;;;;;5031568;28;20048;-77
2024/01/11 08:44:52;;;;;;;62.63;25.43;;;;;;;;;;5033340;28;20268;-79
2024/01/11 08:47:21;;;;;;;62.55;24.55;;;;;;;;;;5031695;28;20273;-77
2024/01/11 08:49:49;;;;;;;61.22;23.98;;;;;;;;;;5037699;28;20033;-79
2024/01/11 08:52:16;;;;;;;61.45;26.83;;;;;;;;;;5034619;28;20053;-78
2024/01/11 08:54:41;;;;;;;60.78;26.50;;;;;;;;;;5035134;28;20029;-78
2024/01/11 08:57:08;;;;;;;69.13;27.53;;;;;;;;;;5031718;28;20112;-78
2024/01/11 08:59:34;;;;;;;72.25;27.63;;;;;;;;;;5034452;28;20272;-78
2024/01/11 09:02:00;;;;;;;76.20;28.47;;;;;;;;;;5033254;28;20034;-78
2024/01/11 09:04:28;;;;;;;70.45;28.08;;;;;;;;;;5050519;28;20286;-79
2024/01/11 09:06:55;;;;;;;74.70;31.25;;;;;;;;;;5029753;28;20026;-78
2024/01/11 09:09:21;;;;;;;61.38;27.23;;;;;;;;;;5067019;28;20044;-78
2024/01/11 09:11:49;;;;;;;66.63;29.63;;;;;;;;;;5039663;28;20029;-78
2024/01/11 09:14:15;;;;;;;78.40;30.25;;;;;;;;;;5037698;28;20034;-77
2024/01/11 09:16:41;;;;;;;66.18;29.45;;;;;;;;;;5040763;28;20033;-79
2024/01/11 09:19:07;;;;;;;60.28;28.13;;;;;;;;;;5039306;28;20038;-78
2024/01/11 09:21:33;;;;;;;59.60;25.73;;;;;;;;;;5040496;28;20053;-78
2024/01/11 09:23:59;;;;;;;64.93;28.30;;;;;;;;;;5036238;28;20461;-79
2024/01/11 09:26:25;;;;;;;70.47;29.60;;;;;;;;;;5037157;28;20280;-79
2024/01/11 09:28:51;;;;;;;66.33;29.37;;;;;;;;;;5052482;28;20033;-79
2024/01/11 09:31:17;;;;;;;60.17;27.63;;;;;;;;;;5064425;28;20292;-79
2024/01/11 09:33:45;;;;;;;72.50;30.87;;;;;;;;;;5036063;28;20026;-79
2024/01/11 09:36:11;;;;;;;67.10;27.92;;;;;;;;;;5033597;28;20268;-78
2024/01/11 09:38:37;;;;;;;60.80;28.88;;;;;;;;;;5031207;28;20041;-79
2024/01/11 09:41:03;;;;;;;73.47;31.20;;;;;;;;;;5064681;28;20052;-78
2024/01/11 09:43:36;;;;;;;75.53;31.83;;;;;;;;;;5050416;28;20556;-77
2024/01/11 09:46:05;;;;;;;66.95;27.65;;;;;;;;;;5049291;28;20272;-77
2024/01/11 09:48:41;;;;;;;66.53;27.98;;;;;;;;;;5051255;28;20038;-78
2024/01/11 09:51:11;;;;;;;64.93;29.52;;;;;;;;;;5035914;28;20026;-77
2024/01/11 09:53:38;;;;;;;62.55;26.33;;;;;;;;;;5034756;28;20048;-78
2024/01/11 09:56:08;;;;;;;55.95;25.42;;;;;;;;;;5050493;28;20029;-78
2024/01/11 09:58:38;;;;;;;62.95;29.83;;;;;;;;;;5035188;28;20055;-78
2024/01/11 10:01:08;;;;;;;65.50;26.75;;;;;;;;;;5046988;28;20014;-78
2024/01/11 10:03:34;;;;;;;73.50;30.88;;;;;;;;;;5031729;28;20030;-78
2024/01/11 10:06:01;;;;;;;68.57;29.17;;;;;;;;;;5045169;28;20056;-77
2024/01/11 10:08:28;;;;;;;69.18;29.92;;;;;;;;;;5037503;28;20041;-78
2024/01/11 10:10:54;;;;;;;66.60;28.45;;;;;;;;;;5033166;28;20029;-77
2024/01/11 10:13:26;;;;;;;57.50;26.97;;;;;;;;;;5038500;28;20037;-78
2024/01/11 10:15:52;;;;;;;65.47;29.52;;;;;;;;;;5066932;28;20276;-76
2024/01/11 10:18:20;;;;;;;75.65;27.98;;;;;;;;;;5068719;28;20037;-78
2024/01/11 10:20:48;;;;;;;70.38;27.92;;;;;;;;;;5063777;28;20757;-79
2024/01/11 10:23:15;;;;;;;63.67;27.73;;;;;;;;;;5050635;28;20033;-78
2024/01/11 10:25:42;;;;;;;62.20;27.38;;;;;;;;;;5052019;28;20034;-76
2024/01/11 10:28:08;;;;;;;69.97;27.13;;;;;;;;;;5031685;28;20228;-79
2024/01/11 10:30:35;;;;;;;66.13;30.07;;;;;;;;;;5051903;28;20113;-78
2024/01/11 10:33:01;;;;;;;65.20;27.55;;;;;;;;;;5038108;28;20036;-76
2024/01/11 10:35:27;;;;;;;65.20;28.83;;;;;;;;;;5051521;28;20038;-78
2024/01/11 10:37:54;;;;;;;68.67;29.20;;;;;;;;;;5033181;28;20412;-79
2024/01/11 10:40:24;;;;;;;73.30;31.65;;;;;;;;;;5023844;28;20890;-80
2024/01/11 10:42:53;;;;;;;71.07;28.63;;;;;;;;;;5038196;28;20044;-83
2024/01/11 10:45:20;;;;;;;60.15;28.85;;;;;;;;;;5039096;28;20028;-81
2024/01/11 10:47:54;;;;;;;64.15;28.38;;;;;;;;;;5045577;28;20033;-86
2024/01/11 10:50:23;;;;;;;71.13;29.08;;;;;;;;;;5058486;28;20100;-85
2024/01/11 10:53:08;;;;;;;67.97;29.67;;;;;;;;;;5038801;28;20033;-86
2024/01/11 10:55:34;;;;;;;64.93;28.70;;;;;;;;;;5056592;28;20029;-80
2024/01/11 10:58:02;;;;;;;69.57;29.33;;;;;;;;;;5069921;28;20034;-81
2024/01/11 11:00:29;;;;;;;66.67;28.93;;;;;;;;;;5040292;28;20706;-83
2024/01/11 11:02:56;;;;;;;66.67;29.13;;;;;;;;;;5043444;28;20296;-85
2024/01/11 11:05:24;;;;;;;64.67;30.07;;;;;;;;;;5075540;28;20278;-83
2024/01/11 11:07:50;;;;;;;68.07;28.87;;;;;;;;;;5050800;28;20751;-88
2024/01/11 11:10:18;;;;;;;65.73;30.30;;;;;;;;;;5049304;28;20275;-79
2024/01/11 11:12:48;;;;;;;64.60;27.43;;;;;;;;;;5056041;28;20331;-80
2024/01/11 11:15:14;;;;;;;58.83;27.40;;;;;;;;;;5060660;28;20284;-87
2024/01/11 11:17:41;;;;;;;67.27;29.53;;;;;;;;;;5034994;28;20375;-88
2024/01/11 11:20:08;;;;;;;60.77;27.23;;;;;;;;;;5051308;28;20291;-87
2024/01/11 11:22:35;;;;;;;66.63;28.83;;;;;;;;;;5036810;28;20293;-79
2024/01/11 11:25:06;;;;;;;62.10;27.63;;;;;;;;;;5051961;28;20264;-80
2024/01/11 11:27:32;;;;;;;61.70;27.53;;;;;;;;;;5071267;28;20256;-79
2024/01/11 11:29:58;;;;;;;65.03;27.77;;;;;;;;;;5040140;28;20562;-83
2024/01/11 11:32:37;;;;;;;68.17;28.43;;;;;;;;;;5071127;28;20072;-79
2024/01/11 11:35:04;;;;;;;58.77;25.63;;;;;;;;;;5068910;28;20033;-79
2024/01/11 11:37:31;;;;;;;58.63;26.37;;;;;;;;;;5039145;28;20276;-80
2024/01/11 11:39:59;;;;;;;59.03;26.43;;;;;;;;;;5039509;28;20257;-87
2024/01/11 11:42:25;;;;;;;64.63;26.87;;;;;;;;;;5033367;28;20322;-92
2024/01/11 11:44:52;;;;;;;57.17;27.97;;;;;;;;;;5047345;28;20304;-91
2024/01/11 11:47:24;;;;;;;57.93;27.07;;;;;;;;;;5039403;28;20256;-87
2024/01/11 11:49:59;;;;;;;57.42;27.70;;;;;;;;;;5038717;28;20337;-89
2024/01/11 11:52:25;;;;;;;61.23;29.30;;;;;;;;;;5059266;28;20021;-89
2024/01/11 11:54:51;;;;;;;62.97;28.27;;;;;;;;;;5071767;28;20275;-91
2024/01/11 11:57:17;;;;;;;63.30;27.40;;;;;;;;;;5038421;28;20257;-93
2024/01/11 11:59:46;;;;;;;61.67;29.10;;;;;;;;;;5038551;28;20775;-92
2024/01/11 12:02:17;;;;;;;60.03;29.97;;;;;;;;;;5034797;28;20295;-90
2024/01/11 12:04:49;;;;;;;62.87;28.17;;;;;;;;;;5058520;28;20703;-90
2024/01/11 12:07:15;;;;;;;64.90;29.85;;;;;;;;;;5038503;28;20260;-92
2024/01/11 12:09:41;;;;;;;68.53;29.37;;;;;;;;;;5042647;28;20029;-88
2024/01/11 12:12:08;;;;;;;58.20;27.93;;;;;;;;;;5080327;28;20292;-92
2024/01/11 12:14:34;;;;;;;68.53;31.30;;;;;;;;;;5026861;28;20263;-91
2024/01/11 12:17:00;;;;;;;63.07;27.90;;;;;;;;;;5038611;28;20319;-90
2024/01/11 12:19:26;;;;;;;67.77;29.63;;;;;;;;;;5034112;28;20392;-91
2024/01/11 12:21:53;;;;;;;64.87;28.57;;;;;;;;;;5033982;28;20300;-85
2024/01/11 12:24:21;;;;;;;61.17;29.57;;;;;;;;;;5029082;28;20272;-88
2024/01/11 12:26:47;;;;;;;62.27;27.30;;;;;;;;;;5044381;28;20277;-90
2024/01/11 12:29:14;;;;;;;56.43;25.60;;;;;;;;;;5029499;28;20400;-92
2024/01/11 12:31:40;;;;;;;65.60;28.23;;;;;;;;;;5032087;28;20284;-91
2024/01/11 12:34:09;;;;;;;64.13;26.27;;;;;;;;;;5028540;28;20277;-90
2024/01/11 12:36:35;;;;;;;55.17;25.20;;;;;;;;;;5027653;28;20040;-87
2024/01/11 12:39:03;;;;;;;54.87;27.73;;;;;;;;;;5032621;28;20360;-87
2024/01/11 12:41:29;;;;;;;63.10;27.53;;;;;;;;;;5039941;28;20328;-89
2024/01/11 12:43:55;;;;;;;57.97;27.03;;;;;;;;;;5032107;28;20329;-88
2024/01/11 12:46:22;;;;;;;60.83;27.97;;;;;;;;;;5027937;28;20273;-89
2024/01/11 12:48:51;;;;;;;62.43;28.20;;;;;;;;;;5029643;28;20264;-90
2024/01/11 12:51:19;;;;;;;65.00;27.70;;;;;;;;;;5040008;28;20264;-91
2024/01/11 12:53:49;;;;;;;64.30;29.57;;;;;;;;;;5043706;28;20268;-91
2024/01/11 12:56:16;;;;;;;62.87;29.27;;;;;;;;;;5046405;28;20371;-90
2024/01/11 12:58:42;;;;;;;64.87;31.03;;;;;;;;;;5061900;28;20276;-87
2024/01/11 13:01:08;;;;;;;65.80;29.87;;;;;;;;;;5026072;28;20280;-88
2024/01/11 13:03:35;;;;;;;60.17;28.00;;;;;;;;;;5045774;28;20380;-89
2024/01/11 13:06:02;;;;;;;67.73;30.80;;;;;;;;;;5027139;28;20362;-90
2024/01/11 13:08:28;;;;;;;61.77;28.20;;;;;;;;;;5027514;28;20720;-89
2024/01/11 13:10:55;;;;;;;61.77;28.83;;;;;;;;;;5027302;28;20304;-87
2024/01/11 13:13:21;;;;;;;61.93;29.10;;;;;;;;;;5044900;28;20276;-90
2024/01/11 13:15:47;;;;;;;66.60;29.83;;;;;;;;;;5029794;28;20287;-92
2024/01/11 13:18:14;;;;;;;68.93;29.73;;;;;;;;;;5058720;28;20757;-90
2024/01/11 13:20:40;;;;;;;69.67;29.03;;;;;;;;;;5030643;28;20300;-87
2024/01/11 13:23:13;;;;;;;67.13;30.03;;;;;;;;;;5041635;28;20320;-87
2024/01/11 13:25:40;;;;;;;59.87;28.20;;;;;;;;;;5043887;28;20277;-86
2024/01/11 13:28:06;;;;;;;65.77;29.87;;;;;;;;;;5025338;28;20280;-89
2024/01/11 13:30:32;;;;;;;67.80;29.30;;;;;;;;;;5045108;28;20350;-89
2024/01/11 13:32:59;;;;;;;66.67;29.73;;;;;;;;;;5028740;28;20029;-87
2024/01/11 13:35:25;;;;;;;54.70;27.13;;;;;;;;;;5042655;28;20764;-91
2024/01/11 13:37:51;;;;;;;52.67;22.40;;;;;;;;;;5032099;28;20302;-88
2024/01/11 13:40:17;;;;;;;59.33;28.30;;;;;;;;;;5042955;28;20268;-87
2024/01/11 13:42:43;;;;;;;53.10;24.43;;;;;;;;;;5029791;28;20308;-86
2024/01/11 13:45:12;;;;;;;55.40;24.77;;;;;;;;;;5029390;28;20278;-88
2024/01/11 13:47:38;;;;;;;56.50;26.17;;;;;;;;;;5027439;28;20283;-86
2024/01/11 13:50:04;;;;;;;60.53;26.97;;;;;;;;;;5038935;28;20271;-86
2024/01/11 13:52:30;;;;;;;52.30;25.67;;;;;;;;;;5025509;28;20284;-91
2024/01/11 13:54:56;;;;;;;62.03;25.27;;;;;;;;;;5042534;28;20586;-85
2024/01/11 13:57:25;;;;;;;55.53;24.80;;;;;;;;;;5028932;28;20033;-88
2024/01/11 13:59:52;;;;;;;55.20;26.77;;;;;;;;;;5025720;28;20029;-91
2024/01/11 14:02:18;;;;;;;55.77;25.60;;;;;;;;;;5043718;28;20284;-89
2024/01/11 14:04:44;;;;;;;61.30;25.73;;;;;;;;;;5026303;28;20406;-91
2024/01/11 14:07:10;;;;;;;55.30;27.10;;;;;;;;;;5027360;28;20030;-91
2024/01/11 14:09:36;;;;;;;58.13;26.17;;;;;;;;;;5042875;28;20030;-86
2024/01/11 14:12:02;;;;;;;51.03;24.00;;;;;;;;;;5026188;28;20295;-86
2024/01/11 14:14:28;;;;;;;55.60;23.87;;;;;;;;;;5043237;28;20130;-91
2024/01/11 14:16:54;;;;;;;58.67;25.47;;;;;;;;;;5026034;28;20292;-92
2024/01/11 14:19:19;;;;;;;55.30;23.27;;;;;;;;;;5041616;28;20039;-87